Time;durP1;ratioP1;P1;durP2;ratioP2;P2;SDS_P1;SDS_P2;PMS_P1;PMS_P2;Temp;Humidity;BMP_temperature;BMP_pressure;BME280_temperature;BME280_humidity;BME280_pressure;Samples;Min_cycle;Max_cycle;Signal;HPM_P1;HPM_P2
2022/08/08 00:01:54;;;;;;;6.72;4.07;;;;;;;;;;5070453;28;20108;-68
2022/08/08 00:04:20;;;;;;;5.57;3.92;;;;;;;;;;5082881;28;20040;-68
2022/08/08 00:06:54;;;;;;;8.55;3.65;;;;;;;;;;5088543;28;20044;-68
2022/08/08 00:09:21;;;;;;;4.97;3.40;;;;;;;;;;5088742;28;20040;-68
2022/08/08 00:11:50;;;;;;;7.55;4.47;;;;;;;;;;5084369;28;20028;-68
2022/08/08 00:14:37;;;;;;;9.93;5.22;;;;;;;;;;5078324;28;20465;-68
2022/08/08 00:17:16;;;;;;;7.05;4.18;;;;;;;;;;5089140;28;20301;-68
2022/08/08 00:19:52;;;;;;;6.65;4.55;;;;;;;;;;5089383;28;20502;-67
2022/08/08 00:22:22;;;;;;;7.30;4.97;;;;;;;;;;5087540;28;20160;-68
2022/08/08 00:24:50;;;;;;;8.75;4.90;;;;;;;;;;5089573;28;20096;-68
2022/08/08 00:27:18;;;;;;;7.50;4.70;;;;;;;;;;5089275;28;20127;-68
2022/08/08 00:29:54;;;;;;;10.25;5.82;;;;;;;;;;5089526;28;20047;-68
2022/08/08 00:32:22;;;;;;;9.95;6.03;;;;;;;;;;5087990;28;20042;-68
2022/08/08 00:35:10;;;;;;;6.95;4.85;;;;;;;;;;5104888;28;20080;-67
2022/08/08 00:37:40;;;;;;;9.57;4.68;;;;;;;;;;5093008;28;20457;-68
2022/08/08 00:40:09;;;;;;;6.82;4.30;;;;;;;;;;5089000;28;20044;-68
2022/08/08 00:42:35;;;;;;;6.65;5.10;;;;;;;;;;5088079;28;20040;-68
2022/08/08 00:45:13;;;;;;;8.05;5.53;;;;;;;;;;5088883;28;20125;-68
2022/08/08 00:47:58;;;;;;;6.10;4.88;;;;;;;;;;5089011;28;20028;-67
2022/08/08 00:50:24;;;;;;;9.70;5.45;;;;;;;;;;5070000;28;20883;-67
2022/08/08 00:52:55;;;;;;;5.85;4.32;;;;;;;;;;5093056;28;20043;-68
2022/08/08 00:55:41;;;;;;;8.35;5.15;;;;;;;;;;5055688;28;20064;-68
2022/08/08 00:58:26;;;;;;;7.55;4.75;;;;;;;;;;5090419;28;20036;-68
2022/08/08 01:01:05;;;;;;;6.13;4.47;;;;;;;;;;5098870;28;20101;-67
2022/08/08 01:03:34;;;;;;;8.02;4.72;;;;;;;;;;5079433;28;20040;-68
2022/08/08 01:06:19;;;;;;;6.72;4.80;;;;;;;;;;5085954;28;20101;-68
2022/08/08 01:09:05;;;;;;;11.57;5.05;;;;;;;;;;5078763;28;20036;-68
2022/08/08 01:11:51;;;;;;;8.10;4.97;;;;;;;;;;5087293;28;20036;-68
2022/08/08 01:14:36;;;;;;;7.93;5.15;;;;;;;;;;5089298;28;20119;-68
2022/08/08 01:17:38;;;;;;;7.70;4.75;;;;;;;;;;5087507;28;20044;-67
2022/08/08 01:20:04;;;;;;;6.40;4.28;;;;;;;;;;5064526;28;20040;-67
2022/08/08 01:22:49;;;;;;;7.50;4.60;;;;;;;;;;5082584;28;20048;-68
2022/08/08 01:25:34;;;;;;;7.47;4.70;;;;;;;;;;5084762;28;20066;-67
2022/08/08 01:28:00;;;;;;;9.55;4.53;;;;;;;;;;5089501;28;20040;-68
2022/08/08 01:30:53;;;;;;;8.40;4.90;;;;;;;;;;5107463;28;20048;-68
2022/08/08 01:33:39;;;;;;;10.02;5.00;;;;;;;;;;5098728;28;20040;-67
2022/08/08 01:36:05;;;;;;;7.30;5.18;;;;;;;;;;5057697;28;20044;-67
2022/08/08 01:38:55;;;;;;;7.32;5.18;;;;;;;;;;5083497;28;20399;-67
2022/08/08 01:41:22;;;;;;;6.93;5.30;;;;;;;;;;5107578;28;20036;-68
2022/08/08 01:43:48;;;;;;;7.07;4.80;;;;;;;;;;5091547;28;20389;-68
2022/08/08 01:46:23;;;;;;;7.00;4.90;;;;;;;;;;5090558;28;20040;-67
2022/08/08 01:49:08;;;;;;;7.68;5.10;;;;;;;;;;5092497;28;20082;-68
2022/08/08 01:51:41;;;;;;;8.48;4.68;;;;;;;;;;5088349;28;20028;-67
2022/08/08 01:54:14;;;;;;;5.68;4.20;;;;;;;;;;5090921;28;20293;-68
2022/08/08 01:56:40;;;;;;;;;;;;;;;;;;5090399;28;20056;-68
2022/08/08 01:59:09;;;;;;;12.93;4.60;;;;;;;;;;5080543;28;19916;-67
2022/08/08 02:01:45;;;;;;;11.23;4.95;;;;;;;;;;5102871;28;20035;-67
2022/08/08 02:04:32;;;;;;;8.30;4.30;;;;;;;;;;5079797;28;20048;-68
2022/08/08 02:07:06;;;;;;;5.88;4.50;;;;;;;;;;5090965;28;20075;-68
2022/08/08 02:09:51;;;;;;;5.97;4.43;;;;;;;;;;5096128;28;20035;-68
2022/08/08 02:12:24;;;;;;;7.53;4.57;;;;;;;;;;5079969;28;20076;-68
2022/08/08 02:15:03;;;;;;;7.32;4.60;;;;;;;;;;5086445;28;20464;-67
2022/08/08 02:17:48;;;;;;;6.32;4.03;;;;;;;;;;5091932;28;20378;-68
2022/08/08 02:20:24;;;;;;;8.32;4.85;;;;;;;;;;5089308;28;20519;-67
2022/08/08 02:23:02;;;;;;;26.20;6.25;;;;;;;;;;5091924;28;20046;-68
2022/08/08 02:25:41;;;;;;;5.28;4.43;;;;;;;;;;5091469;28;20123;-68
2022/08/08 02:28:08;;;;;;;8.70;4.72;;;;;;;;;;5086763;28;20521;-68
2022/08/08 02:31:08;;;;;;;6.53;4.75;;;;;;;;;;5082452;28;20482;-67
2022/08/08 02:33:37;;;;;;;6.55;4.45;;;;;;;;;;5062904;28;20055;-68
2022/08/08 02:36:06;;;;;;;5.95;4.35;;;;;;;;;;5079863;28;20036;-68
2022/08/08 02:38:32;;;;;;;6.20;4.65;;;;;;;;;;5086206;28;20585;-67
2022/08/08 02:41:02;;;;;;;6.15;3.53;;;;;;;;;;5101283;28;20036;-68
2022/08/08 02:43:40;;;;;;;10.18;4.25;;;;;;;;;;5101592;28;20504;-68
2022/08/08 02:46:25;;;;;;;7.70;4.35;;;;;;;;;;5089073;28;20044;-68
2022/08/08 02:48:54;;;;;;;7.32;4.68;;;;;;;;;;5086966;28;20040;-67
2022/08/08 02:51:38;;;;;;;7.03;4.38;;;;;;;;;;5082946;28;20032;-67
2022/08/08 02:54:04;;;;;;;5.93;4.22;;;;;;;;;;5097864;28;20046;-68
2022/08/08 02:56:40;;;;;;;5.00;4.00;;;;;;;;;;5065478;28;20135;-68
2022/08/08 02:59:21;;;;;;;7.75;4.60;;;;;;;;;;5088434;28;20101;-68
2022/08/08 03:01:50;;;;;;;6.93;4.85;;;;;;;;;;5084243;28;20123;-68
2022/08/08 03:04:16;;;;;;;8.90;5.75;;;;;;;;;;5087930;28;20067;-68
2022/08/08 03:06:44;;;;;;;6.75;4.97;;;;;;;;;;5099545;28;20044;-67
2022/08/08 03:09:29;;;;;;;5.28;4.13;;;;;;;;;;5089821;28;20075;-67
2022/08/08 03:12:04;;;;;;;7.65;5.03;;;;;;;;;;5090398;28;20036;-67
2022/08/08 03:14:30;;;;;;;6.15;4.55;;;;;;;;;;5090517;28;20100;-68
2022/08/08 03:16:59;;;;;;;5.75;4.75;;;;;;;;;;5089200;28;20048;-68
2022/08/08 03:19:44;;;;;;;9.43;5.57;;;;;;;;;;5090658;28;20386;-67
2022/08/08 03:22:10;;;;;;;7.97;5.60;;;;;;;;;;5089563;28;20573;-68
2022/08/08 03:24:36;;;;;;;9.00;5.80;;;;;;;;;;5090169;28;20604;-67
2022/08/08 03:27:09;;;;;;;17.05;7.80;;;;;;;;;;5088964;28;20028;-68
2022/08/08 03:29:40;;;;;;;8.75;6.35;;;;;;;;;;5089983;28;20043;-68
2022/08/08 03:34:53;;;;;;;8.95;6.65;;;;;;;;;;5091527;28;20079;-68
2022/08/08 03:37:19;;;;;;;10.90;6.30;;;;;;;;;;5103328;28;20051;-67
2022/08/08 03:39:45;;;;;;;11.35;6.47;;;;;;;;;;5088532;28;20078;-68
2022/08/08 03:42:15;;;;;;;8.27;6.07;;;;;;;;;;5090027;28;20254;-67
2022/08/08 03:44:42;;;;;;;8.98;7.28;;;;;;;;;;5088112;28;20410;-67
2022/08/08 03:47:08;;;;;;;10.10;6.47;;;;;;;;;;5071670;28;20032;-68
2022/08/08 03:49:34;;;;;;;8.93;6.15;;;;;;;;;;5088963;28;20530;-68
2022/08/08 03:52:00;;;;;;;9.57;6.93;;;;;;;;;;5084035;28;20371;-67
2022/08/08 03:54:27;;;;;;;9.38;6.85;;;;;;;;;;5090195;28;20048;-68
2022/08/08 03:56:53;;;;;;;6.78;5.45;;;;;;;;;;5082824;28;20293;-68
2022/08/08 03:59:19;;;;;;;9.18;6.10;;;;;;;;;;5103054;28;20394;-67
2022/08/08 04:01:45;;;;;;;9.93;6.32;;;;;;;;;;5099265;28;20052;-67
2022/08/08 04:04:12;;;;;;;10.02;6.85;;;;;;;;;;5088677;28;20131;-67
2022/08/08 04:06:38;;;;;;;8.52;7.20;;;;;;;;;;5088506;28;20036;-67
2022/08/08 04:09:06;;;;;;;8.43;6.45;;;;;;;;;;5084764;28;20052;-67
2022/08/08 04:11:32;;;;;;;9.02;6.82;;;;;;;;;;5088306;28;20047;-68
2022/08/08 04:13:59;;;;;;;7.40;6.40;;;;;;;;;;5088879;28;20367;-68
2022/08/08 04:16:25;;;;;;;9.30;6.60;;;;;;;;;;5086965;28;20043;-68
2022/08/08 04:18:51;;;;;;;9.65;6.65;;;;;;;;;;5088629;28;20101;-68
2022/08/08 04:21:17;;;;;;;8.48;6.15;;;;;;;;;;5088137;28;20071;-67
2022/08/08 04:23:44;;;;;;;7.80;6.13;;;;;;;;;;5089586;28;20051;-68
2022/08/08 04:26:10;;;;;;;11.35;6.43;;;;;;;;;;5089271;28;20031;-67
2022/08/08 04:28:36;;;;;;;11.43;6.85;;;;;;;;;;5089548;28;20133;-68
2022/08/08 04:31:02;;;;;;;10.60;6.70;;;;;;;;;;5087687;28;20044;-67
2022/08/08 04:33:28;;;;;;;8.65;5.65;;;;;;;;;;5089437;28;20036;-68
2022/08/08 04:35:55;;;;;;;8.35;5.90;;;;;;;;;;5086118;28;20043;-67
2022/08/08 04:38:21;;;;;;;8.50;6.63;;;;;;;;;;5094689;28;20036;-67
2022/08/08 04:40:48;;;;;;;9.85;6.90;;;;;;;;;;5088944;28;20050;-68
2022/08/08 04:43:14;;;;;;;8.77;6.07;;;;;;;;;;5089214;28;20090;-68
2022/08/08 04:45:40;;;;;;;10.10;5.93;;;;;;;;;;5089072;28;20036;-68
2022/08/08 04:48:06;;;;;;;9.55;7.45;;;;;;;;;;5066354;28;20046;-67
2022/08/08 04:50:32;;;;;;;8.65;6.53;;;;;;;;;;5087862;28;20044;-67
2022/08/08 04:52:59;;;;;;;14.65;6.40;;;;;;;;;;5094668;28;20102;-68
2022/08/08 04:55:25;;;;;;;11.43;7.15;;;;;;;;;;5106380;28;20056;-67
2022/08/08 04:57:51;;;;;;;11.77;7.13;;;;;;;;;;5093416;28;20128;-67
2022/08/08 05:00:18;;;;;;;9.52;6.50;;;;;;;;;;5091463;28;20036;-68
2022/08/08 05:02:44;;;;;;;11.30;6.97;;;;;;;;;;5108986;28;20043;-68
2022/08/08 05:05:10;;;;;;;7.68;6.13;;;;;;;;;;5090350;28;20040;-67
2022/08/08 05:07:36;;;;;;;7.55;5.40;;;;;;;;;;5075040;28;20040;-68
2022/08/08 05:10:03;;;;;;;8.55;6.88;;;;;;;;;;5093096;28;20047;-68
2022/08/08 05:12:29;;;;;;;9.68;6.18;;;;;;;;;;5092202;28;20127;-68
2022/08/08 05:14:56;;;;;;;8.88;5.55;;;;;;;;;;5093043;28;20036;-67
2022/08/08 05:17:22;;;;;;;11.88;7.68;;;;;;;;;;5092815;28;20040;-68
2022/08/08 05:19:48;;;;;;;10.30;6.72;;;;;;;;;;5092364;28;20118;-67
2022/08/08 05:22:14;;;;;;;10.93;6.75;;;;;;;;;;5106049;28;20047;-68
2022/08/08 05:24:41;;;;;;;8.70;6.75;;;;;;;;;;5092957;28;20068;-68
2022/08/08 05:27:07;;;;;;;8.05;6.43;;;;;;;;;;5091665;28;20118;-68
2022/08/08 05:29:35;;;;;;;13.13;7.35;;;;;;;;;;5091116;28;20036;-68
2022/08/08 05:32:01;;;;;;;9.65;6.57;;;;;;;;;;5103298;28;20106;-68
2022/08/08 05:34:34;;;;;;;8.00;6.25;;;;;;;;;;5105409;28;20448;-68
2022/08/08 05:37:02;;;;;;;10.25;6.85;;;;;;;;;;5085637;28;20046;-68
2022/08/08 05:39:28;;;;;;;6.50;5.35;;;;;;;;;;5104358;28;20505;-68
2022/08/08 05:41:56;;;;;;;8.80;6.20;;;;;;;;;;5107530;28;20047;-68
2022/08/08 05:44:45;;;;;;;8.52;6.32;;;;;;;;;;5091246;28;20047;-68
2022/08/08 05:47:12;;;;;;;11.88;6.38;;;;;;;;;;5092160;28;20037;-68
2022/08/08 05:49:40;;;;;;;7.05;5.57;;;;;;;;;;5092489;28;20516;-68
2022/08/08 05:52:06;;;;;;;9.85;5.68;;;;;;;;;;5091064;28;20405;-68
2022/08/08 05:54:32;;;;;;;8.55;5.70;;;;;;;;;;5090973;28;20260;-68
2022/08/08 05:56:59;;;;;;;11.27;6.95;;;;;;;;;;5086055;28;20051;-68
2022/08/08 05:59:25;;;;;;;9.32;6.13;;;;;;;;;;5107756;28;20046;-68
2022/08/08 06:01:55;;;;;;;9.75;5.78;;;;;;;;;;5091716;28;20036;-68
2022/08/08 06:04:26;;;;;;;9.55;5.63;;;;;;;;;;5092192;28;20036;-68
2022/08/08 06:06:53;;;;;;;11.48;5.95;;;;;;;;;;5088807;28;20048;-68
2022/08/08 06:09:22;;;;;;;7.72;5.57;;;;;;;;;;5091665;28;20503;-68
2022/08/08 06:11:49;;;;;;;6.85;5.20;;;;;;;;;;5090220;28;20255;-69
2022/08/08 06:14:15;;;;;;;8.77;5.22;;;;;;;;;;5090755;28;20158;-68
2022/08/08 06:16:42;;;;;;;8.43;4.93;;;;;;;;;;5090385;28;20058;-69
2022/08/08 06:19:10;;;;;;;11.52;4.72;;;;;;;;;;5090814;28;20085;-68
2022/08/08 06:21:37;;;;;;;8.93;5.47;;;;;;;;;;5089586;28;20115;-68
2022/08/08 06:24:05;;;;;;;7.72;5.28;;;;;;;;;;5085682;28;20481;-68
2022/08/08 06:26:36;;;;;;;8.95;4.30;;;;;;;;;;5090536;28;20129;-68
2022/08/08 06:29:04;;;;;;;6.57;4.32;;;;;;;;;;5088633;28;20090;-68
2022/08/08 06:31:34;;;;;;;17.08;5.20;;;;;;;;;;5090364;28;20036;-68
2022/08/08 06:34:11;;;;;;;8.23;4.30;;;;;;;;;;5083240;28;20047;-68
2022/08/08 06:36:39;;;;;;;6.10;3.97;;;;;;;;;;5085190;28;20133;-68
2022/08/08 06:39:08;;;;;;;5.25;4.22;;;;;;;;;;5089142;28;20036;-68
2022/08/08 06:41:39;;;;;;;8.27;4.68;;;;;;;;;;5091480;28;20067;-68
2022/08/08 06:44:10;;;;;;;7.10;3.33;;;;;;;;;;5091436;28;20402;-68
2022/08/08 06:46:37;;;;;;;6.68;3.13;;;;;;;;;;5090939;28;20111;-68
2022/08/08 06:49:04;;;;;;;8.32;3.45;;;;;;;;;;5091453;28;20040;-68
2022/08/08 06:51:30;;;;;;;6.43;3.30;;;;;;;;;;5089544;28;20081;-68
2022/08/08 06:53:56;;;;;;;5.15;2.65;;;;;;;;;;5090972;28;20079;-69
2022/08/08 06:56:23;;;;;;;5.15;2.95;;;;;;;;;;5090533;28;20056;-68
2022/08/08 06:58:50;;;;;;;4.60;1.85;;;;;;;;;;5091222;28;20055;-68
2022/08/08 07:01:17;;;;;;;4.55;2.22;;;;;;;;;;5089381;28;20449;-69
2022/08/08 07:03:43;;;;;;;6.07;2.50;;;;;;;;;;5095343;28;20040;-69
2022/08/08 07:06:10;;;;;;;5.07;2.75;;;;;;;;;;5096096;28;20040;-68
2022/08/08 07:08:41;;;;;;;5.90;1.80;;;;;;;;;;5090776;28;20047;-69
2022/08/08 07:11:08;;;;;;;4.55;2.38;;;;;;;;;;5090153;28;20032;-69
2022/08/08 07:13:39;;;;;;;3.35;1.73;;;;;;;;;;5090657;28;20036;-70
2022/08/08 07:16:12;;;;;;;4.20;2.03;;;;;;;;;;5099895;28;20229;-68
2022/08/08 07:18:44;;;;;;;12.38;2.20;;;;;;;;;;5098238;28;20044;-68
2022/08/08 07:21:13;;;;;;;2.78;1.80;;;;;;;;;;5088919;28;20040;-68
2022/08/08 07:24:06;;;;;;;4.40;2.05;;;;;;;;;;5082307;28;20305;-68
2022/08/08 07:26:33;;;;;;;3.88;1.92;;;;;;;;;;5088643;28;20044;-69
2022/08/08 07:28:59;;;;;;;6.85;1.98;;;;;;;;;;5090421;28;20036;-69
2022/08/08 07:31:25;;;;;;;5.38;1.85;;;;;;;;;;5090040;28;20485;-68
2022/08/08 07:33:52;;;;;;;9.90;2.50;;;;;;;;;;5106101;28;20158;-69
2022/08/08 07:36:19;;;;;;;3.05;1.38;;;;;;;;;;5087518;28;20058;-68
2022/08/08 07:38:50;;;;;;;2.63;1.50;;;;;;;;;;5088706;28;20039;-69
2022/08/08 07:41:23;;;;;;;4.57;1.73;;;;;;;;;;5125464;27;1322303;-67
2022/08/08 07:43:51;;;;;;;6.88;2.38;;;;;;;;;;5133676;27;20923;-68
2022/08/08 07:46:17;;;;;;;3.05;1.95;;;;;;;;;;5134737;27;20043;-67
2022/08/08 07:48:43;;;;;;;2.45;1.67;;;;;;;;;;5157750;27;20095;-68
2022/08/08 07:51:10;;;;;;;2.38;1.75;;;;;;;;;;5134867;27;20500;-67
2022/08/08 07:53:36;;;;;;;3.88;1.95;;;;;;;;;;5162008;27;20088;-68
2022/08/08 07:56:03;;;;;;;4.75;2.25;;;;;;;;;;5137124;27;20043;-67
2022/08/08 07:58:37;;;;;;;3.45;1.65;;;;;;;;;;5139820;27;20507;-67
2022/08/08 08:01:05;;;;;;;4.45;1.55;;;;;;;;;;5137072;27;20526;-67
2022/08/08 08:03:31;;;;;;;3.00;1.70;;;;;;;;;;5163127;27;20437;-67
2022/08/08 08:06:00;;;;;;;2.95;1.73;;;;;;;;;;5148789;27;20111;-67
2022/08/08 08:08:31;;;;;;;2.45;1.60;;;;;;;;;;5146596;27;20042;-67
2022/08/08 08:10:58;;;;;;;2.13;1.38;;;;;;;;;;5156687;27;20030;-67
2022/08/08 08:13:24;;;;;;;3.95;2.10;;;;;;;;;;5159038;27;20061;-67
2022/08/08 08:16:05;;;;;;;3.42;1.98;;;;;;;;;;5135632;27;20487;-68
2022/08/08 08:18:38;;;;;;;3.03;1.70;;;;;;;;;;5148131;27;20046;-67
2022/08/08 08:21:07;;;;;;;3.20;1.70;;;;;;;;;;5144075;27;20327;-67
2022/08/08 08:23:33;;;;;;;4.38;2.05;;;;;;;;;;5132134;27;20050;-67
2022/08/08 08:25:59;;;;;;;2.50;1.80;;;;;;;;;;5155137;27;20035;-67
2022/08/08 08:28:25;;;;;;;2.97;1.77;;;;;;;;;;5139380;27;20034;-67
2022/08/08 08:30:52;;;;;;;3.22;1.80;;;;;;;;;;5165300;27;20050;-67
2022/08/08 08:33:18;;;;;;;3.90;2.03;;;;;;;;;;5145380;27;20050;-67
2022/08/08 08:35:44;;;;;;;3.00;2.08;;;;;;;;;;5149948;27;20516;-68
2022/08/08 08:38:11;;;;;;;4.57;2.20;;;;;;;;;;5158006;27;20094;-68
2022/08/08 08:40:37;;;;;;;4.05;1.98;;;;;;;;;;5150479;27;20086;-67
2022/08/08 08:43:04;;;;;;;7.07;2.00;;;;;;;;;;5166076;27;20393;-67
2022/08/08 08:45:31;;;;;;;2.80;1.80;;;;;;;;;;5131588;27;20031;-67
2022/08/08 08:47:57;;;;;;;4.03;2.33;;;;;;;;;;5135893;27;20118;-67
2022/08/08 08:50:25;;;;;;;2.83;2.20;;;;;;;;;;5130957;27;20057;-68
2022/08/08 08:52:52;;;;;;;4.15;2.10;;;;;;;;;;5129856;27;20399;-67
2022/08/08 08:55:18;;;;;;;2.88;1.75;;;;;;;;;;5151800;27;20042;-67
2022/08/08 08:57:48;;;;;;;3.80;1.88;;;;;;;;;;5136709;27;20045;-67
2022/08/08 09:00:14;;;;;;;4.05;2.08;;;;;;;;;;5116960;27;20039;-68
2022/08/08 09:02:42;;;;;;;6.82;2.17;;;;;;;;;;5102118;27;20498;-68
2022/08/08 09:05:09;;;;;;;6.80;2.17;;;;;;;;;;5123321;27;20465;-67
2022/08/08 09:07:36;;;;;;;4.47;2.35;;;;;;;;;;5125403;27;20039;-67
2022/08/08 09:10:04;;;;;;;4.35;2.85;;;;;;;;;;5129528;27;20046;-68
2022/08/08 09:12:31;;;;;;;5.00;2.15;;;;;;;;;;5150828;27;20641;-68
2022/08/08 09:14:58;;;;;;;3.85;1.95;;;;;;;;;;5148654;27;20091;-68
2022/08/08 09:17:24;;;;;;;6.20;2.42;;;;;;;;;;5124333;27;20035;-68
2022/08/08 09:19:52;;;;;;;5.20;3.13;;;;;;;;;;5117138;27;20047;-67
2022/08/08 09:22:20;;;;;;;3.70;2.65;;;;;;;;;;5106716;27;20034;-67
2022/08/08 09:24:46;;;;;;;5.07;2.53;;;;;;;;;;5141030;27;20095;-68
2022/08/08 09:27:13;;;;;;;3.88;2.58;;;;;;;;;;5122273;27;20039;-68
2022/08/08 09:29:48;;;;;;;3.38;3.08;;;;;;;;;;5130443;27;20157;-68
2022/08/08 09:32:16;;;;;;;5.28;2.42;;;;;;;;;;5119368;27;20043;-68
2022/08/08 09:34:48;;;;;;;6.47;2.70;;;;;;;;;;5123843;27;20039;-68
2022/08/08 09:37:16;;;;;;;4.25;2.80;;;;;;;;;;5119083;27;20043;-67
2022/08/08 09:39:46;;;;;;;7.22;3.70;;;;;;;;;;5115168;27;20079;-68
2022/08/08 09:42:14;;;;;;;4.30;3.03;;;;;;;;;;5115703;27;20039;-68
2022/08/08 09:45:03;;;;;;;4.28;3.22;;;;;;;;;;5119379;27;20042;-67
2022/08/08 09:47:31;;;;;;;5.70;3.13;;;;;;;;;;5119549;27;20047;-67
2022/08/08 09:49:58;;;;;;;6.28;3.15;;;;;;;;;;5129934;27;20434;-67
2022/08/08 09:52:27;;;;;;;8.90;3.05;;;;;;;;;;5118301;27;20043;-68
2022/08/08 09:54:54;;;;;;;5.18;3.17;;;;;;;;;;5117276;27;20031;-68
2022/08/08 09:57:30;;;;;;;3.65;2.65;;;;;;;;;;5115141;27;20035;-67
2022/08/08 09:59:58;;;;;;;4.15;2.63;;;;;;;;;;5120682;27;20050;-68
2022/08/08 10:02:29;;;;;;;9.88;3.30;;;;;;;;;;5116203;27;20042;-68
2022/08/08 10:05:02;;;;;;;4.05;3.05;;;;;;;;;;5123966;27;20035;-68
2022/08/08 10:07:28;;;;;;;3.20;2.80;;;;;;;;;;5127435;27;20492;-68
2022/08/08 10:09:54;;;;;;;3.47;2.60;;;;;;;;;;5100481;27;20043;-68
2022/08/08 10:12:30;;;;;;;4.93;2.80;;;;;;;;;;5108745;27;20066;-68
2022/08/08 10:14:59;;;;;;;3.70;2.80;;;;;;;;;;5123599;27;20095;-67
2022/08/08 10:17:25;;;;;;;3.80;2.10;;;;;;;;;;5126562;27;20062;-68
2022/08/08 10:19:56;;;;;;;7.15;2.88;;;;;;;;;;5113013;27;20097;-68
2022/08/08 10:22:23;;;;;;;3.45;2.45;;;;;;;;;;5121532;27;20046;-68
2022/08/08 10:24:52;;;;;;;5.45;2.58;;;;;;;;;;5107178;27;20384;-68
2022/08/08 10:27:19;;;;;;;3.40;1.95;;;;;;;;;;5120702;27;20263;-68
2022/08/08 10:29:53;;;;;;;5.30;2.75;;;;;;;;;;5114827;27;20504;-68
2022/08/08 10:32:31;;;;;;;5.15;2.67;;;;;;;;;;5121842;27;20205;-68
2022/08/08 10:34:58;;;;;;;9.10;3.53;;;;;;;;;;5121801;27;20389;-67
2022/08/08 10:37:27;;;;;;;3.25;2.38;;;;;;;;;;5124019;27;20075;-69
2022/08/08 10:39:55;;;;;;;10.93;2.65;;;;;;;;;;5126193;27;20527;-68
2022/08/08 10:42:22;;;;;;;4.45;3.00;;;;;;;;;;5124790;27;20196;-69
2022/08/08 10:44:49;;;;;;;4.75;2.67;;;;;;;;;;5121885;27;20042;-68
2022/08/08 10:47:16;;;;;;;4.75;2.30;;;;;;;;;;5113306;27;20043;-69
2022/08/08 10:49:49;;;;;;;3.28;2.08;;;;;;;;;;5125939;27;20031;-69
2022/08/08 10:52:15;;;;;;;;;;;;;;;;;;5120104;27;20070;-69
2022/08/08 10:54:51;;;;;;;2.75;2.00;;;;;;;;;;5126003;27;19915;-68
2022/08/08 10:57:17;;;;;;;3.50;2.08;;;;;;;;;;5117013;27;20043;-69
2022/08/08 10:59:49;;;;;;;4.28;1.95;;;;;;;;;;5124991;27;20091;-69
2022/08/08 11:02:22;;;;;;;5.07;2.20;;;;;;;;;;5114717;27;20162;-69
2022/08/08 11:04:48;;;;;;;4.75;2.22;;;;;;;;;;5113752;27;20035;-68
2022/08/08 11:07:23;;;;;;;3.78;2.20;;;;;;;;;;5121898;27;20067;-68
2022/08/08 11:09:49;;;;;;;3.60;2.10;;;;;;;;;;5105237;27;20536;-68
2022/08/08 11:12:15;;;;;;;3.35;1.83;;;;;;;;;;5111406;27;20076;-68
2022/08/08 11:14:52;;;;;;;3.65;2.20;;;;;;;;;;5125014;27;20036;-68
2022/08/08 11:17:21;;;;;;;3.90;1.92;;;;;;;;;;5112176;27;20051;-68
2022/08/08 11:19:48;;;;;;;3.20;2.45;;;;;;;;;;5119347;27;20303;-69
2022/08/08 11:22:15;;;;;;;3.90;1.85;;;;;;;;;;5124722;27;20035;-69
2022/08/08 11:24:42;;;;;;;4.78;2.45;;;;;;;;;;5127882;27;20042;-68
2022/08/08 11:27:09;;;;;;;2.83;1.70;;;;;;;;;;5101441;28;20047;-68
2022/08/08 11:29:36;;;;;;;7.82;2.47;;;;;;;;;;5124285;27;20039;-68
2022/08/08 11:32:02;;;;;;;2.65;2.00;;;;;;;;;;5111810;27;20046;-69
2022/08/08 11:34:32;;;;;;;2.63;1.80;;;;;;;;;;5119697;27;20652;-68
2022/08/08 11:37:00;;;;;;;5.97;2.30;;;;;;;;;;5112825;28;20040;-69
2022/08/08 11:39:27;;;;;;;4.82;2.70;;;;;;;;;;5124625;27;20133;-68
2022/08/08 11:41:53;;;;;;;4.07;2.95;;;;;;;;;;5102109;27;20493;-69
2022/08/08 11:44:20;;;;;;;4.20;2.95;;;;;;;;;;5121025;28;20118;-69
2022/08/08 11:46:46;;;;;;;4.97;2.97;;;;;;;;;;5122443;28;20551;-69
2022/08/08 11:49:13;;;;;;;4.40;2.80;;;;;;;;;;5111995;28;20085;-69
2022/08/08 11:51:39;;;;;;;4.43;2.78;;;;;;;;;;5146285;27;20084;-69
2022/08/08 11:54:06;;;;;;;3.63;2.13;;;;;;;;;;5132352;27;20441;-68
2022/08/08 11:56:34;;;;;;;3.53;2.63;;;;;;;;;;5117391;27;20039;-69
2022/08/08 11:59:10;;;;;;;5.53;2.35;;;;;;;;;;5142204;27;20034;-69
2022/08/08 12:01:37;;;;;;;5.18;2.33;;;;;;;;;;5113395;28;20126;-68
2022/08/08 12:04:05;;;;;;;5.00;2.10;;;;;;;;;;5112426;27;20087;-69
2022/08/08 12:06:31;;;;;;;2.85;2.03;;;;;;;;;;5149334;27;20429;-69
2022/08/08 12:09:05;;;;;;;5.70;2.42;;;;;;;;;;5125960;27;20047;-68
2022/08/08 12:11:37;;;;;;;3.40;2.20;;;;;;;;;;5122268;27;20091;-68
2022/08/08 12:14:03;;;;;;;10.07;1.95;;;;;;;;;;5125902;27;20050;-69
2022/08/08 12:16:29;;;;;;;4.43;2.25;;;;;;;;;;5118010;28;20043;-69
2022/08/08 12:18:56;;;;;;;4.97;1.95;;;;;;;;;;5147917;27;20404;-69
2022/08/08 12:21:29;;;;;;;2.83;1.77;;;;;;;;;;5109516;27;20039;-69
2022/08/08 12:24:07;;;;;;;4.57;1.60;;;;;;;;;;5119926;27;20042;-68
2022/08/08 12:26:41;;;;;;;4.50;1.85;;;;;;;;;;5123304;27;20043;-69
2022/08/08 12:29:20;;;;;;;5.90;2.58;;;;;;;;;;5120879;27;20123;-69
2022/08/08 12:31:47;;;;;;;4.43;2.30;;;;;;;;;;5143484;27;20568;-69
2022/08/08 12:34:14;;;;;;;3.53;1.77;;;;;;;;;;5124252;27;20047;-69
2022/08/08 12:36:43;;;;;;;5.53;2.22;;;;;;;;;;5116093;27;20031;-68
2022/08/08 12:39:10;;;;;;;3.45;1.90;;;;;;;;;;5118450;27;20034;-69
2022/08/08 12:41:36;;;;;;;2.70;1.63;;;;;;;;;;5131986;27;20286;-69
2022/08/08 12:44:06;;;;;;;2.88;1.98;;;;;;;;;;5130423;27;20047;-69
2022/08/08 12:46:32;;;;;;;4.22;2.10;;;;;;;;;;5098468;27;20108;-69
2022/08/08 12:49:01;;;;;;;4.13;2.20;;;;;;;;;;5119378;27;20069;-69
2022/08/08 12:51:49;;;;;;;1.48;1.38;;;;;;;;;;5109990;27;20432;-69
2022/08/08 12:54:22;;;;;;;2.72;1.55;;;;;;;;;;5098318;27;20040;-69
2022/08/08 12:56:49;;;;;;;2.10;1.80;;;;;;;;;;5120362;27;20511;-70
2022/08/08 12:59:25;;;;;;;1.90;1.63;;;;;;;;;;5125500;27;20118;-69
2022/08/08 13:01:51;;;;;;;4.88;2.45;;;;;;;;;;5118509;27;20043;-69
2022/08/08 13:04:19;;;;;;;3.47;1.48;;;;;;;;;;5116540;27;20031;-69
2022/08/08 13:07:13;;;;;;;4.07;1.63;;;;;;;;;;5114701;27;20059;-69
2022/08/08 13:09:40;;;;;;;2.28;1.60;;;;;;;;;;5108234;28;20222;-69
2022/08/08 13:12:12;;;;;;;3.40;1.98;;;;;;;;;;5128365;27;20088;-69
2022/08/08 13:14:43;;;;;;;2.88;1.75;;;;;;;;;;5126851;27;20396;-69
2022/08/08 13:17:09;;;;;;;2.88;1.75;;;;;;;;;;5120838;27;20048;-70
2022/08/08 13:19:36;;;;;;;4.40;1.80;;;;;;;;;;5116393;27;20039;-69
2022/08/08 13:22:02;;;;;;;1.95;1.55;;;;;;;;;;5125256;27;20047;-70
2022/08/08 13:24:29;;;;;;;7.25;1.90;;;;;;;;;;5128497;27;20042;-69
2022/08/08 13:27:01;;;;;;;3.17;1.80;;;;;;;;;;5129255;27;20393;-69
2022/08/08 13:29:27;;;;;;;;;;;;;;;;;;5127901;27;20118;-69
2022/08/08 13:31:54;;;;;;;3.33;2.47;;;;;;;;;;5113930;27;19968;-69
2022/08/08 13:34:20;;;;;;;6.20;2.42;;;;;;;;;;5121907;27;20032;-69
2022/08/08 13:36:46;;;;;;;5.20;2.08;;;;;;;;;;5115914;27;20100;-69
2022/08/08 13:39:16;;;;;;;4.47;2.00;;;;;;;;;;5126476;27;20074;-69
2022/08/08 13:41:46;;;;;;;2.70;1.80;;;;;;;;;;5115831;27;20047;-69
2022/08/08 13:44:13;;;;;;;4.53;1.83;;;;;;;;;;5118529;27;20074;-69
2022/08/08 13:46:39;;;;;;;3.63;2.05;;;;;;;;;;5142217;27;20037;-70
2022/08/08 13:49:18;;;;;;;5.18;2.40;;;;;;;;;;5119596;27;20047;-70
2022/08/08 13:51:53;;;;;;;5.05;2.28;;;;;;;;;;5096304;27;20433;-69
2022/08/08 13:54:21;;;;;;;4.38;2.00;;;;;;;;;;5135505;27;20088;-69
2022/08/08 13:56:58;;;;;;;3.42;1.95;;;;;;;;;;5139613;27;20027;-69
2022/08/08 13:59:31;;;;;;;5.40;2.63;;;;;;;;;;5101307;27;20090;-69
2022/08/08 14:01:57;;;;;;;3.22;2.30;;;;;;;;;;5113776;27;20036;-69
2022/08/08 14:04:24;;;;;;;6.60;2.53;;;;;;;;;;5142643;27;20114;-69
2022/08/08 14:06:59;;;;;;;3.83;2.53;;;;;;;;;;5150935;27;20038;-69
2022/08/08 14:09:32;;;;;;;5.07;2.45;;;;;;;;;;5145686;27;20097;-69
2022/08/08 14:11:59;;;;;;;3.10;2.22;;;;;;;;;;5118035;27;20228;-70
2022/08/08 14:14:38;;;;;;;4.20;2.47;;;;;;;;;;5123456;27;20077;-69
2022/08/08 14:17:06;;;;;;;7.40;2.38;;;;;;;;;;5135041;27;20046;-69
2022/08/08 14:19:34;;;;;;;3.40;1.92;;;;;;;;;;5133068;27;20043;-70
2022/08/08 14:22:01;;;;;;;3.65;2.28;;;;;;;;;;5128816;27;20042;-69
2022/08/08 14:24:33;;;;;;;3.92;1.88;;;;;;;;;;5122436;27;20471;-70
2022/08/08 14:26:59;;;;;;;;;;;;;;;;;;5117296;27;20038;-69
2022/08/08 14:29:26;;;;;;;3.17;2.10;;;;;;;;;;5125247;27;20372;-70
2022/08/08 14:31:52;;;;;;;4.00;2.10;;;;;;;;;;5107104;27;20035;-69
2022/08/08 14:34:18;;;;;;;2.13;1.83;;;;;;;;;;5129945;27;20070;-70
2022/08/08 14:36:49;;;;;;;4.97;1.88;;;;;;;;;;5113118;27;20042;-70
2022/08/08 14:39:18;;;;;;;5.47;2.08;;;;;;;;;;5102469;27;20043;-70
2022/08/08 14:41:45;;;;;;;6.55;1.90;;;;;;;;;;5140497;27;20074;-70
2022/08/08 14:44:12;;;;;;;2.78;1.80;;;;;;;;;;5132945;27;20118;-69
2022/08/08 14:46:39;;;;;;;4.10;1.90;;;;;;;;;;5142013;27;20031;-69
2022/08/08 14:49:10;;;;;;;5.68;2.13;;;;;;;;;;5122727;27;20055;-71
2022/08/08 14:51:40;;;;;;;2.47;1.65;;;;;;;;;;5118018;27;20519;-70
2022/08/08 14:54:06;;;;;;;3.47;2.13;;;;;;;;;;5149178;27;20034;-70
2022/08/08 14:56:34;;;;;;;3.92;1.70;;;;;;;;;;5129630;27;20501;-70
2022/08/08 14:59:01;;;;;;;2.83;1.95;;;;;;;;;;5145254;27;20042;-70
2022/08/08 15:01:33;;;;;;;2.95;1.98;;;;;;;;;;5118877;27;20071;-70
2022/08/08 15:03:59;;;;;;;4.53;1.83;;;;;;;;;;5119534;27;20453;-70